Terminal Aerodrome Forecast
Issued by NWS Amarillo, TX

Home | Current Version | Previous Version | Text Only | Print | Product List | Glossary On
Versions: 1 2 3 4 5 6 7 8 9 10 11 12 13 14
000
FTUS44 KAMA 300500
TAFDHT
TAF
KDHT 300520Z 3006/3106 13006KT P6SM BKN150
     FM301000 24008KT P6SM OVC120
     FM302000 20015KT P6SM SCT080=

USA.gov is the U.S. government's official web portal to all federal, state and local government web resources and services.